White Butte, South Dakota
Current Conditions -  °F | °C
As of 5:09 AM on Monday 22 Dec 2014 (Local Time) from KHEI Reporting Station
Overcast Overcast  
Wind Chill: 23°   Ceiling: 1600
Heat Index: 34°   Visibility: 10mi
Dew Point: 31°   Wind: 20mph
Humidity: 89%   Direction: 300°WNW
Pressure: 29.46"   Gusts: 32mph
Location:  45.8079°N, 102.334°W
Report Text: KHEI 221209Z AUTO 30017G28KT 10SM BKN016 OVC020 01/M01 A2946 RMK AO2 PK WND 29028/1204 SNE01 P0000 T00111006
Loading
Personal Weather Stations






























Interactive Weather Map New forecast layout! Learn more

10-Day Weather Forecast

Advertisements
Track Severe Weather on mobile